createdAt,value
2016-11-22T00:03:07.390Z,996.14
2016-11-22T00:08:04.004Z,996.34
2016-11-22T00:13:00.605Z,996.61
2016-11-22T00:17:57.930Z,996.59
2016-11-22T00:22:55.434Z,996.64
2016-11-22T00:27:51.913Z,996.62
2016-11-22T00:32:48.141Z,996.56
2016-11-22T00:37:45.199Z,996.67
2016-11-22T00:42:41.831Z,996.67
2016-11-22T00:47:39.610Z,996.44
2016-11-22T00:52:35.875Z,996.36
2016-11-22T00:57:32.300Z,996.25
2016-11-22T01:02:29.141Z,996.25
2016-11-22T01:07:25.602Z,996.21
2016-11-22T01:12:22.176Z,996.34
2016-11-22T01:17:18.670Z,996.42
2016-11-22T01:22:15.145Z,996.38
2016-11-22T01:27:11.606Z,996.37
2016-11-22T01:32:08.034Z,996.32
2016-11-22T01:37:04.652Z,996.46
2016-11-22T01:42:01.197Z,996.40
2016-11-22T01:46:57.469Z,996.46
2016-11-22T01:51:54.151Z,996.46
2016-11-22T01:56:51.833Z,996.54
2016-11-22T02:01:48.053Z,996.57
2016-11-22T02:06:44.835Z,996.55
2016-11-22T02:11:41.452Z,996.46
2016-11-22T02:16:38.142Z,996.42
2016-11-22T02:21:34.200Z,996.37
2016-11-22T02:26:30.860Z,996.36
2016-11-22T02:31:27.318Z,996.50
2016-11-22T02:36:24.101Z,996.38
2016-11-22T02:41:20.500Z,996.39
2016-11-22T02:46:17.460Z,996.27
2016-11-22T02:51:14.018Z,996.84
2016-11-22T02:56:10.750Z,996.96
2016-11-22T03:01:07.726Z,997.15
2016-11-22T03:06:03.940Z,997.26
2016-11-22T03:11:00.590Z,997.30
2016-11-22T03:15:57.169Z,997.23
2016-11-22T03:20:53.684Z,996.95
2016-11-22T03:25:50.151Z,997.15
2016-11-22T03:30:46.753Z,997.30
2016-11-22T03:35:43.078Z,997.31
2016-11-22T03:40:41.415Z,997.36
2016-11-22T03:45:37.706Z,997.24
2016-11-22T03:50:36.922Z,997.26
2016-11-22T03:55:33.416Z,997.27
2016-11-22T04:00:29.638Z,997.32
2016-11-22T04:05:26.170Z,997.41
2016-11-22T04:10:23.038Z,997.37
2016-11-22T04:15:19.508Z,997.77
2016-11-22T04:20:16.564Z,997.79
2016-11-22T04:25:12.944Z,997.91
2016-11-22T04:30:09.742Z,997.87
2016-11-22T04:35:06.229Z,997.78
2016-11-22T04:40:03.345Z,997.75
2016-11-22T04:44:59.818Z,998.29
2016-11-22T04:49:56.358Z,998.86
2016-11-22T04:54:52.821Z,999.07
2016-11-22T04:59:49.753Z,998.83
2016-11-22T05:04:46.340Z,998.60
2016-11-22T05:09:42.981Z,998.48
2016-11-22T05:14:39.459Z,998.36
2016-11-22T05:19:35.988Z,998.26
2016-11-22T05:24:32.305Z,998.19
2016-11-22T05:29:28.827Z,998.44
2016-11-22T05:34:25.266Z,998.26
2016-11-22T05:39:22.732Z,998.67
2016-11-22T05:44:19.068Z,998.70
2016-11-22T05:49:15.390Z,998.82
2016-11-22T05:54:11.968Z,999.01
2016-11-22T05:59:08.481Z,999.13
2016-11-22T06:04:07.029Z,999.15
2016-11-22T06:09:03.158Z,999.29
2016-11-22T06:13:59.417Z,999.32
2016-11-22T06:18:56.454Z,999.45
2016-11-22T06:23:52.849Z,999.29
2016-11-22T06:28:49.495Z,999.40
2016-11-22T06:33:48.423Z,999.53
2016-11-22T06:38:44.236Z,999.70
2016-11-22T06:43:41.676Z,999.79
2016-11-22T06:48:38.284Z,999.87
2016-11-22T06:53:34.711Z,1000.01
2016-11-22T06:58:31.193Z,1000.09
2016-11-22T07:03:27.878Z,1000.12
2016-11-22T07:08:24.487Z,1000.17
2016-11-22T07:13:20.771Z,1000.26
2016-11-22T07:18:17.319Z,1000.37
2016-11-22T07:23:13.711Z,1000.46
2016-11-22T07:28:10.143Z,1000.61
2016-11-22T07:33:06.641Z,1000.70
2016-11-22T07:38:03.357Z,1000.81
2016-11-22T07:42:59.993Z,1000.83
2016-11-22T07:47:56.013Z,1000.94
2016-11-22T07:52:53.307Z,1001.06
2016-11-22T07:57:49.923Z,1001.18
2016-11-22T08:02:46.471Z,1001.22
2016-11-22T08:07:43.370Z,1001.27
2016-11-22T08:12:39.517Z,1001.37
2016-11-22T08:17:36.235Z,1001.46
2016-11-22T08:22:32.845Z,1001.45
2016-11-22T08:27:29.689Z,1001.54
2016-11-22T08:32:26.319Z,1001.60
2016-11-22T08:37:22.872Z,1001.71
2016-11-22T08:42:19.410Z,1001.73
2016-11-22T08:47:15.919Z,1001.89
2016-11-22T08:52:12.705Z,1001.99
2016-11-22T08:57:09.397Z,1002.10
2016-11-22T09:02:05.867Z,1002.13
2016-11-22T09:07:02.339Z,1002.30
2016-11-22T09:11:59.768Z,1002.38
2016-11-22T09:16:56.818Z,1002.45
2016-11-22T09:21:54.106Z,1002.47
2016-11-22T09:26:50.667Z,1002.72
2016-11-22T09:31:47.347Z,1002.76
2016-11-22T09:36:44.025Z,1002.95
2016-11-22T09:41:40.590Z,1002.99
2016-11-22T09:46:37.112Z,1003.01
2016-11-22T09:51:33.789Z,1003.17
2016-11-22T09:56:30.472Z,1003.24
2016-11-22T10:01:27.392Z,1003.37
2016-11-22T10:06:24.412Z,1003.37
2016-11-22T10:11:21.196Z,1003.26
2016-11-22T10:16:17.932Z,1003.29
2016-11-22T10:21:14.689Z,1003.48
2016-11-22T10:26:11.699Z,1003.39
2016-11-22T10:31:08.173Z,1003.35
2016-11-22T10:36:05.059Z,1003.52
2016-11-22T10:41:01.562Z,1003.45
2016-11-22T10:45:58.057Z,1003.48
2016-11-22T10:50:54.893Z,1003.51
2016-11-22T10:55:51.890Z,1003.61
2016-11-22T11:00:48.583Z,1003.66
2016-11-22T11:05:45.510Z,1003.63
2016-11-22T11:10:41.924Z,1003.70
2016-11-22T11:15:38.404Z,1003.69
2016-11-22T11:20:34.908Z,1003.61
2016-11-22T11:25:31.468Z,1003.62
2016-11-22T11:30:28.007Z,1003.63
2016-11-22T11:35:24.705Z,1003.82
2016-11-22T11:40:21.428Z,1003.81
2016-11-22T11:45:18.618Z,1003.70
2016-11-22T11:50:15.306Z,1003.77
2016-11-22T11:55:12.385Z,1003.75
2016-11-22T12:00:09.025Z,1003.76
2016-11-22T12:05:05.822Z,1003.74
2016-11-22T12:10:02.665Z,1003.82
2016-11-22T12:14:59.109Z,1003.72
2016-11-22T12:19:55.672Z,1003.72
2016-11-22T12:24:52.203Z,1003.74
2016-11-22T12:29:48.942Z,1003.68
2016-11-22T12:34:45.603Z,1003.78
2016-11-22T12:39:41.989Z,1003.94
2016-11-22T12:44:40.030Z,1003.90
2016-11-22T12:49:36.354Z,1004.03
2016-11-22T12:54:32.629Z,1004.06
2016-11-22T12:59:29.311Z,1004.07
2016-11-22T13:04:25.974Z,1003.96
2016-11-22T13:09:22.482Z,1003.89
2016-11-22T13:14:19.707Z,1003.85
2016-11-22T13:19:16.112Z,1003.93
2016-11-22T13:24:14.085Z,1003.94
2016-11-22T13:29:10.376Z,1004.03
2016-11-22T13:34:08.023Z,1003.90
2016-11-22T13:39:04.512Z,1004.08
2016-11-22T13:44:01.005Z,1004.09
2016-11-22T13:48:57.325Z,1004.10
2016-11-22T13:53:53.467Z,1004.03
2016-11-22T13:58:49.642Z,1003.97
2016-11-22T14:03:46.049Z,1004.25
2016-11-22T14:08:42.186Z,1004.42
2016-11-22T14:13:39.221Z,1004.48
2016-11-22T14:18:35.852Z,1004.72
2016-11-22T14:23:32.216Z,1004.71
2016-11-22T14:28:29.075Z,1004.70
2016-11-22T14:33:26.564Z,1004.77
2016-11-22T14:38:22.810Z,1004.90
2016-11-22T14:43:19.086Z,1004.89
2016-11-22T14:48:15.507Z,1005.01
2016-11-22T14:53:13.151Z,1005.25
2016-11-22T14:58:09.916Z,1005.20
2016-11-22T15:03:08.265Z,1005.14
2016-11-22T15:08:04.295Z,1005.39
2016-11-22T15:13:00.718Z,1005.28
2016-11-22T15:17:56.995Z,1005.32
2016-11-22T15:22:53.341Z,1005.25
2016-11-22T15:27:49.614Z,1005.31
2016-11-22T15:32:46.211Z,1005.37
2016-11-22T15:37:42.704Z,1005.33
2016-11-22T15:42:39.144Z,1005.49
2016-11-22T15:47:36.062Z,1005.51
2016-11-22T15:52:33.593Z,1005.48
2016-11-22T15:57:29.798Z,1005.55
2016-11-22T16:02:26.456Z,1005.56
2016-11-22T16:07:23.023Z,1005.59
2016-11-22T16:12:19.416Z,1005.71
2016-11-22T16:17:15.426Z,1005.77
2016-11-22T16:22:12.406Z,1005.85
2016-11-22T16:27:08.839Z,1005.90
2016-11-22T16:32:05.326Z,1005.94
2016-11-22T16:37:02.305Z,1005.99
2016-11-22T16:41:58.805Z,1006.08
2016-11-22T16:46:55.407Z,1006.16
2016-11-22T16:51:51.829Z,1006.19
2016-11-22T16:56:48.097Z,1006.08
2016-11-22T17:01:44.987Z,1006.09
2016-11-22T17:06:41.150Z,1006.10
2016-11-22T17:11:37.884Z,1006.17
2016-11-22T17:16:34.681Z,1006.19
2016-11-22T17:21:31.418Z,1006.22
2016-11-22T17:26:28.328Z,1006.25
2016-11-22T17:31:24.919Z,1006.25
2016-11-22T17:36:21.324Z,1006.35
2016-11-22T17:41:17.846Z,1006.61
2016-11-22T17:46:25.091Z,1006.76
2016-11-22T17:51:20.285Z,1006.91
2016-11-22T17:56:17.290Z,1006.93
2016-11-22T18:01:13.844Z,1006.94
2016-11-22T18:06:10.297Z,1007.05
2016-11-22T18:11:06.865Z,1007.03
2016-11-22T18:16:03.768Z,1007.14
2016-11-22T18:21:00.362Z,1007.11
2016-11-22T18:25:57.194Z,1007.29
2016-11-22T18:30:53.687Z,1007.35
2016-11-22T18:35:50.288Z,1007.57
2016-11-22T18:40:47.022Z,1007.58
2016-11-22T18:45:43.936Z,1007.60
2016-11-22T18:50:40.395Z,1007.72
2016-11-22T18:55:36.752Z,1007.84
2016-11-22T19:00:33.949Z,1007.91
2016-11-22T19:05:30.361Z,1007.94
2016-11-22T19:10:27.214Z,1008.08
2016-11-22T19:15:24.026Z,1008.35
2016-11-22T19:20:20.517Z,1008.34
2016-11-22T19:25:16.872Z,1008.44
2016-11-22T19:30:13.611Z,1008.57
2016-11-22T19:35:10.207Z,1008.56
2016-11-22T19:40:06.335Z,1008.69
2016-11-22T19:45:02.757Z,1008.73
2016-11-22T19:49:59.314Z,1008.75
2016-11-22T19:54:56.330Z,1008.83
2016-11-22T19:59:52.768Z,1008.83
2016-11-22T20:04:49.161Z,1008.70
2016-11-22T20:09:45.887Z,1008.72
2016-11-22T20:14:42.351Z,1008.84
2016-11-22T20:19:38.775Z,1008.71
2016-11-22T20:24:35.233Z,1008.69
2016-11-22T20:29:31.681Z,1008.69
2016-11-22T20:34:27.907Z,1008.67
2016-11-22T20:39:25.329Z,1008.50
2016-11-22T20:44:21.678Z,1008.39
2016-11-22T20:49:18.171Z,1008.48
2016-11-22T20:54:14.853Z,1008.58
2016-11-22T20:59:11.414Z,1008.58
2016-11-22T21:04:07.859Z,1008.44
2016-11-22T21:09:04.218Z,1008.26
2016-11-22T21:14:00.652Z,1008.36
2016-11-22T21:18:57.011Z,1008.58
2016-11-22T21:23:53.309Z,1008.43
2016-11-22T21:28:49.692Z,1008.46
2016-11-22T21:33:47.329Z,1008.51
2016-11-22T21:38:43.572Z,1008.47
2016-11-22T21:43:40.144Z,1008.56
2016-11-22T21:48:36.662Z,1008.70
2016-11-22T21:53:33.147Z,1008.75
2016-11-22T21:58:29.910Z,1008.83
2016-11-22T22:03:26.327Z,1008.83
2016-11-22T22:08:22.955Z,1008.86
2016-11-22T22:13:19.714Z,1008.85
2016-11-22T22:18:16.804Z,1008.91
2016-11-22T22:23:12.952Z,1008.95
2016-11-22T22:28:09.349Z,1008.96
2016-11-22T22:33:05.940Z,1008.92
2016-11-22T22:38:02.407Z,1008.96
2016-11-22T22:42:59.556Z,1008.95
2016-11-22T22:47:56.059Z,1008.94
2016-11-22T22:52:52.781Z,1008.96
2016-11-22T22:57:49.295Z,1008.88
2016-11-22T23:02:45.807Z,1008.78
2016-11-22T23:07:42.905Z,1008.70
2016-11-22T23:12:38.735Z,1008.80
2016-11-22T23:17:35.437Z,1008.75
2016-11-22T23:22:31.779Z,1008.83
2016-11-22T23:27:29.094Z,1008.90
2016-11-22T23:32:25.737Z,1008.91
2016-11-22T23:37:22.880Z,1008.91
2016-11-22T23:42:19.313Z,1008.95
2016-11-22T23:47:15.773Z,1008.84
2016-11-22T23:52:12.964Z,1008.96
2016-11-22T23:57:10.597Z,1009.04
